Terminal Aerodrome Forecast
Issued by NWS Wilmington, OH

Current Version | Previous Version | Graphics & Text | Print | Product List | Glossary On
Versions: 1 2 3 4 5 6 7 8 9 10 11 12 13 14 15 16 17 18 19 20 21 22 23 24 25 26 27 28 29 30 31 32 33 34
000
FTUS41 KILN 181900 AAB
TAFCVG
TAF AMD
KCVG 181945Z 1820/1924 35004KT P6SM VCSH SCT027 BKN035
      TEMPO 1820/1821 -SHRA BKN027
     FM190100 VRB03KT P6SM SCT045
     FM190600 VRB03KT 5SM BR BKN250
     FM190800 00000KT 2SM BR BKN250
     FM191300 22005KT P6SM BKN250
     FM191800 24009KT P6SM SCT040 BKN250=

USA.gov is the U.S. government's official web portal to all federal, state and local government web resources and services.